createdAt,value
2017-12-11T00:00:37.134Z,4.21
2017-12-11T00:01:37.121Z,4.21
2017-12-11T00:02:37.109Z,4.20
2017-12-11T00:03:37.101Z,4.17
2017-12-11T00:04:37.084Z,4.18
2017-12-11T00:05:37.074Z,4.16
2017-12-11T00:06:37.062Z,4.17
2017-12-11T00:07:37.050Z,4.18
2017-12-11T00:08:37.037Z,4.18
2017-12-11T00:09:37.024Z,4.16
2017-12-11T00:10:37.011Z,4.21
2017-12-11T00:11:37.002Z,4.26
2017-12-11T00:12:36.994Z,4.29
2017-12-11T00:13:36.977Z,4.32
2017-12-11T00:14:36.963Z,4.38
2017-12-11T00:15:36.953Z,4.31
2017-12-11T00:16:36.939Z,4.28
2017-12-11T00:17:36.936Z,4.25
2017-12-11T00:18:36.916Z,4.20
2017-12-11T00:19:36.902Z,4.18
2017-12-11T00:20:36.896Z,4.21
2017-12-11T00:21:36.879Z,4.32
2017-12-11T00:22:36.870Z,4.28
2017-12-11T00:23:36.853Z,4.38
2017-12-11T00:24:36.841Z,4.31
2017-12-11T00:25:36.836Z,4.36
2017-12-11T00:26:36.818Z,4.32
2017-12-11T00:27:36.805Z,4.36
2017-12-11T00:28:36.802Z,4.32
2017-12-11T00:29:36.823Z,4.35
2017-12-11T00:30:36.768Z,4.35
2017-12-11T00:31:36.760Z,4.34
2017-12-11T00:32:36.750Z,4.28
2017-12-11T00:33:36.737Z,4.35
2017-12-11T00:34:36.719Z,4.31
2017-12-11T00:35:36.707Z,4.34
2017-12-11T00:36:36.699Z,4.28
2017-12-11T00:37:36.682Z,4.29
2017-12-11T00:38:36.669Z,4.35
2017-12-11T00:39:36.663Z,4.29
2017-12-11T00:40:36.651Z,4.26
2017-12-11T00:41:36.638Z,4.28
2017-12-11T00:42:36.620Z,4.34
2017-12-11T00:43:36.607Z,4.36
2017-12-11T00:44:36.598Z,4.39
2017-12-11T00:45:36.583Z,4.42
2017-12-11T00:46:36.572Z,4.44
2017-12-11T00:47:36.558Z,4.50
2017-12-11T00:48:36.550Z,4.51
2017-12-11T00:49:36.541Z,4.53
2017-12-11T00:50:36.527Z,4.51
2017-12-11T00:51:36.509Z,4.53
2017-12-11T00:52:36.499Z,4.59
2017-12-11T00:53:36.485Z,4.64
2017-12-11T00:54:36.483Z,4.57
2017-12-11T00:55:36.459Z,4.68
2017-12-11T00:56:36.456Z,4.59
2017-12-11T00:57:36.442Z,4.62
2017-12-11T00:58:36.423Z,4.79
2017-12-11T00:59:36.415Z,4.77
2017-12-11T01:00:36.404Z,4.69
2017-12-11T01:01:36.388Z,4.59
2017-12-11T01:02:36.379Z,4.67
2017-12-11T01:03:36.360Z,4.64
2017-12-11T01:04:36.350Z,4.67
2017-12-11T01:05:36.337Z,4.69
2017-12-11T01:06:36.324Z,4.65
2017-12-11T01:07:36.312Z,4.54
2017-12-11T01:08:36.299Z,4.68
2017-12-11T01:09:36.290Z,4.67
2017-12-11T01:10:36.278Z,4.67
2017-12-11T01:11:36.266Z,4.61
2017-12-11T01:12:36.249Z,4.51
2017-12-11T01:13:36.239Z,4.51
2017-12-11T01:14:36.225Z,4.49
2017-12-11T01:15:36.212Z,4.51
2017-12-11T01:16:36.202Z,4.54
2017-12-11T01:17:36.190Z,4.53
2017-12-11T01:18:36.174Z,4.47
2017-12-11T01:19:36.167Z,4.50
2017-12-11T01:20:36.151Z,4.57
2017-12-11T01:21:36.137Z,4.50
2017-12-11T01:22:36.124Z,4.57
2017-12-11T01:23:36.112Z,4.59
2017-12-11T01:24:36.106Z,4.59
2017-12-11T01:25:36.096Z,4.54
2017-12-11T01:26:36.076Z,4.50
2017-12-11T01:27:36.064Z,4.57
2017-12-11T01:28:36.051Z,4.61
2017-12-11T01:29:36.040Z,4.49
2017-12-11T01:30:36.026Z,4.54
2017-12-11T01:31:36.017Z,4.56
2017-12-11T01:32:36.004Z,4.67
2017-12-11T01:33:35.994Z,4.69
2017-12-11T01:34:35.978Z,4.68
2017-12-11T01:35:35.967Z,4.69
2017-12-11T01:36:35.954Z,4.54
2017-12-11T01:37:35.945Z,4.67
2017-12-11T01:38:35.928Z,4.53
2017-12-11T01:39:35.916Z,4.47
2017-12-11T01:40:35.909Z,4.56
2017-12-11T01:41:35.897Z,4.59
2017-12-11T01:42:35.880Z,4.64
2017-12-11T01:43:35.876Z,4.54
2017-12-11T01:44:35.856Z,4.54
2017-12-11T01:45:35.844Z,4.57
2017-12-11T01:46:35.830Z,4.62
2017-12-11T01:47:35.819Z,4.56
2017-12-11T01:48:35.812Z,4.62
2017-12-11T01:49:35.794Z,4.49
2017-12-11T01:50:35.780Z,4.50
2017-12-11T01:51:35.775Z,4.46
2017-12-11T01:52:35.755Z,4.43
2017-12-11T01:53:35.750Z,4.43
2017-12-11T01:54:35.732Z,4.44
2017-12-11T01:55:35.720Z,4.44
2017-12-11T01:56:35.706Z,4.54
2017-12-11T01:57:35.694Z,4.49
2017-12-11T01:58:35.684Z,4.51
2017-12-11T01:59:35.671Z,4.56
2017-12-11T02:00:35.658Z,4.57
2017-12-11T02:01:35.648Z,4.74
2017-12-11T02:02:35.636Z,4.75
2017-12-11T02:03:35.620Z,4.72
2017-12-11T02:04:35.609Z,4.64
2017-12-11T02:05:35.598Z,4.61
2017-12-11T02:06:35.589Z,4.61
2017-12-11T02:07:35.574Z,4.56
2017-12-11T02:08:35.558Z,4.65
2017-12-11T02:09:35.547Z,4.56
2017-12-11T02:10:35.540Z,4.61
2017-12-11T02:11:35.523Z,4.61
2017-12-11T02:12:35.509Z,4.72
2017-12-11T02:13:35.504Z,4.74
2017-12-11T02:14:35.484Z,4.72
2017-12-11T02:15:35.478Z,4.57
2017-12-11T02:16:35.460Z,4.54
2017-12-11T02:17:35.447Z,4.64
2017-12-11T02:18:35.436Z,4.57
2017-12-11T02:19:35.422Z,4.54
2017-12-11T02:20:35.415Z,4.56
2017-12-11T02:21:35.396Z,4.59
2017-12-11T02:22:35.389Z,4.59
2017-12-11T02:23:35.371Z,4.44
2017-12-11T02:24:35.366Z,4.56
2017-12-11T02:25:35.346Z,4.74
2017-12-11T02:26:35.340Z,4.69
2017-12-11T02:27:35.324Z,4.77
2017-12-11T02:28:35.308Z,4.68
2017-12-11T02:29:35.297Z,4.72
2017-12-11T02:30:35.286Z,4.65
2017-12-11T02:31:35.270Z,4.68
2017-12-11T02:32:35.260Z,4.79
2017-12-11T02:33:35.252Z,4.69
2017-12-11T02:34:35.234Z,4.72
2017-12-11T02:35:35.224Z,4.69
2017-12-11T02:36:35.209Z,4.75
2017-12-11T02:37:35.196Z,4.67
2017-12-11T02:38:35.193Z,4.67
2017-12-11T02:39:35.172Z,4.57
2017-12-11T02:40:35.158Z,4.68
2017-12-11T02:41:35.147Z,4.67
2017-12-11T02:42:35.134Z,4.69
2017-12-11T02:43:35.127Z,4.77
2017-12-11T02:44:35.109Z,4.64
2017-12-11T02:45:35.095Z,4.71
2017-12-11T02:46:35.088Z,4.61
2017-12-11T02:47:35.070Z,4.57
2017-12-11T02:48:35.059Z,4.64
2017-12-11T02:49:35.061Z,4.67
2017-12-11T02:50:35.032Z,4.68
2017-12-11T02:51:35.019Z,4.69
2017-12-11T02:52:35.019Z,4.71
2017-12-11T02:53:35.000Z,4.72
2017-12-11T02:54:34.981Z,4.79
2017-12-11T02:55:34.969Z,4.68
2017-12-11T02:56:34.957Z,4.77
2017-12-11T02:57:34.947Z,4.83
2017-12-11T02:58:34.938Z,4.80
2017-12-11T02:59:34.924Z,4.83
2017-12-11T03:00:34.912Z,4.80
2017-12-11T03:01:34.901Z,4.80
2017-12-11T03:02:34.887Z,4.83
2017-12-11T03:03:34.868Z,4.83
2017-12-11T03:04:34.861Z,4.91
2017-12-11T03:05:34.854Z,4.83
2017-12-11T03:06:34.832Z,4.90
2017-12-11T03:07:34.820Z,4.87
2017-12-11T03:08:34.806Z,4.88
2017-12-11T03:09:34.794Z,4.84
2017-12-11T03:10:34.781Z,4.79
2017-12-11T03:11:34.771Z,4.75
2017-12-11T03:12:34.763Z,4.75
2017-12-11T03:13:34.750Z,4.75
2017-12-11T03:14:34.735Z,4.79
2017-12-11T03:15:34.719Z,4.75
2017-12-11T03:16:34.704Z,4.75
2017-12-11T03:17:34.693Z,4.75
2017-12-11T03:18:34.681Z,4.68
2017-12-11T03:19:34.669Z,4.71
2017-12-11T03:20:34.661Z,4.79
2017-12-11T03:21:34.648Z,4.71
2017-12-11T03:22:34.629Z,4.75
2017-12-11T03:23:34.628Z,4.77
2017-12-11T03:24:34.610Z,4.77
2017-12-11T03:25:34.594Z,4.75
2017-12-11T03:26:34.580Z,4.68
2017-12-11T03:27:34.569Z,4.62
2017-12-11T03:28:34.554Z,4.71
2017-12-11T03:29:34.549Z,4.67
2017-12-11T03:30:34.530Z,4.62
2017-12-11T03:31:34.519Z,4.65
2017-12-11T03:32:34.505Z,4.64
2017-12-11T03:33:34.495Z,4.56
2017-12-11T03:34:34.486Z,4.69
2017-12-11T03:35:34.467Z,4.57
2017-12-11T03:36:34.457Z,4.56
2017-12-11T03:37:34.445Z,4.67
2017-12-11T03:38:34.437Z,4.71
2017-12-11T03:39:34.419Z,4.68
2017-12-11T03:40:34.407Z,4.77
2017-12-11T03:41:34.397Z,4.72
2017-12-11T03:42:34.381Z,4.77
2017-12-11T03:43:34.376Z,4.68
2017-12-11T03:44:34.357Z,4.84
2017-12-11T03:45:34.346Z,4.79
2017-12-11T03:46:34.334Z,4.77
2017-12-11T03:47:34.323Z,4.86
2017-12-11T03:48:34.308Z,4.83
2017-12-11T03:49:34.298Z,4.69
2017-12-11T03:50:34.286Z,4.77
2017-12-11T03:51:34.278Z,4.69
2017-12-11T03:52:34.271Z,4.71
2017-12-11T03:53:34.249Z,4.69
2017-12-11T03:54:34.235Z,4.69
2017-12-11T03:55:34.229Z,4.64
2017-12-11T03:56:34.217Z,4.72
2017-12-11T03:57:34.201Z,4.64
2017-12-11T03:58:34.188Z,4.65
2017-12-11T03:59:34.180Z,4.56
2017-12-11T04:00:34.163Z,4.56
2017-12-11T04:01:34.152Z,4.74
2017-12-11T04:02:34.138Z,4.68
2017-12-11T04:03:34.126Z,4.54
2017-12-11T04:04:34.114Z,4.54
2017-12-11T04:05:34.103Z,4.54
2017-12-11T04:06:34.089Z,4.67
2017-12-11T04:07:34.084Z,4.69
2017-12-11T04:08:34.072Z,4.71
2017-12-11T04:09:34.054Z,4.69
2017-12-11T04:10:34.046Z,4.69
2017-12-11T04:11:34.028Z,4.77
2017-12-11T04:12:34.021Z,4.68
2017-12-11T04:13:34.025Z,4.65
2017-12-11T04:14:33.991Z,4.64
2017-12-11T04:15:33.980Z,4.71
2017-12-11T04:16:33.966Z,4.68
2017-12-11T04:17:33.960Z,4.57
2017-12-11T04:18:33.942Z,4.71
2017-12-11T04:19:33.935Z,4.71
2017-12-11T04:20:33.930Z,4.77
2017-12-11T04:21:33.909Z,4.77
2017-12-11T04:22:33.897Z,4.65
2017-12-11T04:23:33.886Z,4.64
2017-12-11T04:24:33.868Z,4.68
2017-12-11T04:25:33.856Z,4.77
2017-12-11T04:26:33.844Z,4.65
2017-12-11T04:27:33.837Z,4.74
2017-12-11T04:28:33.819Z,4.72
2017-12-11T04:29:33.808Z,4.68
2017-12-11T04:30:33.800Z,4.69
2017-12-11T04:31:33.783Z,4.71
2017-12-11T04:32:33.770Z,4.59
2017-12-11T04:33:33.758Z,4.54
2017-12-11T04:34:33.744Z,4.56
2017-12-11T04:35:33.736Z,4.57
2017-12-11T04:36:33.720Z,4.69
2017-12-11T04:37:33.710Z,4.71
2017-12-11T04:38:33.697Z,4.77
2017-12-11T04:39:33.689Z,4.79
2017-12-11T04:40:33.671Z,4.77
2017-12-11T04:41:33.663Z,4.86
2017-12-11T04:42:33.650Z,4.68
2017-12-11T04:43:33.636Z,4.68
2017-12-11T04:44:33.623Z,4.80
2017-12-11T04:45:33.611Z,4.69
2017-12-11T04:46:33.599Z,4.67
2017-12-11T04:47:33.589Z,4.67
2017-12-11T04:48:33.575Z,4.62
2017-12-11T04:49:33.563Z,4.64
2017-12-11T04:50:33.556Z,4.65
2017-12-11T04:51:33.539Z,4.54
2017-12-11T04:52:33.526Z,4.68
2017-12-11T04:53:33.516Z,4.61
2017-12-11T04:54:33.502Z,4.62
2017-12-11T04:55:33.490Z,4.62
2017-12-11T04:56:33.481Z,4.61
2017-12-11T04:57:33.465Z,4.56
2017-12-11T04:58:33.451Z,4.46
2017-12-11T04:59:33.442Z,4.61
2017-12-11T05:00:33.434Z,4.51
2017-12-11T05:01:33.417Z,4.54
2017-12-11T05:02:33.403Z,4.53
2017-12-11T05:03:33.392Z,4.56
2017-12-11T05:04:33.378Z,4.49
2017-12-11T05:05:33.369Z,4.57
2017-12-11T05:06:33.353Z,4.54
2017-12-11T05:07:33.347Z,4.54
2017-12-11T05:08:33.334Z,4.46
2017-12-11T05:09:33.320Z,4.47
2017-12-11T05:10:33.304Z,4.47
2017-12-11T05:11:33.302Z,4.36
2017-12-11T05:12:33.281Z,4.38
2017-12-11T05:13:33.287Z,4.43
2017-12-11T05:14:33.257Z,4.39
2017-12-11T05:15:33.246Z,4.46
2017-12-11T05:16:33.234Z,4.38
2017-12-11T05:17:33.229Z,4.46
2017-12-11T05:18:33.208Z,4.47
2017-12-11T05:19:33.196Z,4.39
2017-12-11T05:20:33.195Z,4.46
2017-12-11T05:21:33.172Z,4.47
2017-12-11T05:22:33.160Z,4.47
2017-12-11T05:23:33.150Z,4.47
2017-12-11T05:24:33.136Z,4.46
2017-12-11T05:25:33.123Z,4.49
2017-12-11T05:26:33.111Z,4.54
2017-12-11T05:27:33.103Z,4.53
2017-12-11T05:28:33.094Z,4.49
2017-12-11T05:29:33.075Z,4.51
2017-12-11T05:30:33.065Z,4.47
2017-12-11T05:31:33.060Z,4.51
2017-12-11T05:32:33.042Z,4.42
2017-12-11T05:33:33.030Z,4.49
2017-12-11T05:34:33.035Z,4.47
2017-12-11T05:35:33.006Z,4.46
2017-12-11T05:36:33.011Z,4.44
2017-12-11T05:37:32.980Z,4.46
2017-12-11T05:38:32.968Z,4.46
2017-12-11T05:39:32.965Z,4.53
2017-12-11T05:40:32.942Z,4.57
2017-12-11T05:41:32.937Z,4.42
2017-12-11T05:42:32.918Z,4.46
2017-12-11T05:43:32.908Z,4.49
2017-12-11T05:44:32.893Z,4.44
2017-12-11T05:45:32.888Z,4.43
2017-12-11T05:46:32.872Z,4.44
2017-12-11T05:47:32.858Z,4.44
2017-12-11T05:48:32.855Z,4.43
2017-12-11T05:49:32.832Z,4.51
2017-12-11T05:50:32.821Z,4.47
2017-12-11T05:51:32.843Z,4.43
2017-12-11T05:52:32.796Z,4.43
2017-12-11T05:53:32.784Z,4.39
2017-12-11T05:54:32.771Z,4.32
2017-12-11T05:55:32.764Z,4.35
2017-12-11T05:56:32.752Z,4.38
2017-12-11T05:57:32.744Z,4.44
2017-12-11T05:58:32.731Z,4.47
2017-12-11T05:59:32.718Z,4.38
2017-12-11T06:00:32.704Z,4.46
2017-12-11T06:01:32.693Z,4.51
2017-12-11T06:02:32.677Z,4.54
2017-12-11T06:03:32.665Z,4.53
2017-12-11T06:04:32.657Z,4.50
2017-12-11T06:05:32.640Z,4.56
2017-12-11T06:06:32.628Z,4.67
2017-12-11T06:07:32.620Z,4.75
2017-12-11T06:08:32.604Z,4.74
2017-12-11T06:09:32.591Z,4.79
2017-12-11T06:10:32.580Z,4.72
2017-12-11T06:11:32.567Z,4.79
2017-12-11T06:12:32.554Z,4.71
2017-12-11T06:13:32.543Z,4.69
2017-12-11T06:14:32.529Z,4.86
2017-12-11T06:15:32.518Z,4.79
2017-12-11T06:16:32.516Z,4.86
2017-12-11T06:17:32.499Z,4.88
2017-12-11T06:18:32.490Z,4.88
2017-12-11T06:19:32.473Z,4.75
2017-12-11T06:20:32.461Z,4.71
2017-12-11T06:21:32.447Z,4.71
2017-12-11T06:22:32.432Z,4.74
2017-12-11T06:23:32.423Z,4.69
2017-12-11T06:24:32.410Z,4.72
2017-12-11T06:25:32.397Z,4.75
2017-12-11T06:26:32.390Z,4.72
2017-12-11T06:27:32.374Z,4.75
2017-12-11T06:28:32.369Z,4.71
2017-12-11T06:29:32.355Z,4.86
2017-12-11T06:30:32.336Z,4.83
2017-12-11T06:31:32.324Z,4.74
2017-12-11T06:32:32.310Z,4.72
2017-12-11T06:33:32.298Z,4.74
2017-12-11T06:34:32.286Z,4.72
2017-12-11T06:35:32.274Z,4.72
2017-12-11T06:36:32.267Z,4.80
2017-12-11T06:37:32.249Z,4.74
2017-12-11T06:38:32.237Z,4.69
2017-12-11T06:39:32.226Z,4.75
2017-12-11T06:40:32.220Z,4.72
2017-12-11T06:41:32.202Z,4.72
2017-12-11T06:42:32.190Z,4.64
2017-12-11T06:43:32.178Z,4.59
2017-12-11T06:44:32.170Z,4.56
2017-12-11T06:45:32.153Z,4.56
2017-12-11T06:46:32.145Z,4.49
2017-12-11T06:47:32.135Z,4.46
2017-12-11T06:48:32.114Z,4.44
2017-12-11T06:49:32.104Z,4.47
2017-12-11T06:50:32.097Z,4.44
2017-12-11T06:51:32.079Z,4.54
2017-12-11T06:52:32.066Z,4.56
2017-12-11T06:53:32.056Z,4.68
2017-12-11T06:54:32.042Z,4.75
2017-12-11T06:55:32.030Z,4.62
2017-12-11T06:56:32.018Z,4.56
2017-12-11T06:57:32.012Z,4.56
2017-12-11T06:58:31.993Z,4.53
2017-12-11T06:59:31.986Z,4.54
2017-12-11T07:00:31.969Z,4.59
2017-12-11T07:01:31.956Z,4.57
2017-12-11T07:02:31.942Z,4.53
2017-12-11T07:03:31.934Z,4.42
2017-12-11T07:04:31.925Z,4.43
2017-12-11T07:05:31.907Z,4.53
2017-12-11T07:06:31.893Z,4.57
2017-12-11T07:07:31.882Z,4.65
2017-12-11T07:08:31.869Z,4.62
2017-12-11T07:09:31.869Z,4.69
2017-12-11T07:10:31.844Z,4.72
2017-12-11T07:11:31.837Z,4.68
2017-12-11T07:12:31.821Z,4.71
2017-12-11T07:13:31.806Z,4.87
2017-12-11T07:14:31.795Z,4.86
2017-12-11T07:15:31.782Z,4.86
2017-12-11T07:16:31.771Z,4.75
2017-12-11T07:17:31.759Z,4.80
2017-12-11T07:18:31.743Z,4.84
2017-12-11T07:19:31.732Z,4.86
2017-12-11T07:20:31.720Z,4.79
2017-12-11T07:21:31.710Z,4.80
2017-12-11T07:22:31.703Z,4.91
2017-12-11T07:23:31.693Z,4.91
2017-12-11T07:24:31.671Z,4.90
2017-12-11T07:25:31.659Z,4.94
2017-12-11T07:26:31.647Z,5.01
2017-12-11T07:27:31.637Z,5.05
2017-12-11T07:28:31.628Z,5.11
2017-12-11T07:29:31.609Z,5.22
2017-12-11T07:30:31.594Z,5.17
2017-12-11T07:31:31.583Z,5.20
2017-12-11T07:32:31.570Z,5.19
2017-12-11T07:33:31.558Z,5.19
2017-12-11T07:34:31.547Z,5.32
2017-12-11T07:35:31.532Z,5.20
2017-12-11T07:36:31.520Z,5.17
2017-12-11T07:37:31.509Z,5.11
2017-12-11T07:38:31.495Z,5.06
2017-12-11T07:39:31.490Z,5.11
2017-12-11T07:40:31.471Z,5.02
2017-12-11T07:41:31.460Z,5.04
2017-12-11T07:42:31.445Z,5.05
2017-12-11T07:43:31.434Z,4.96
2017-12-11T07:44:31.427Z,5.01
2017-12-11T07:45:31.410Z,4.91
2017-12-11T07:46:31.405Z,4.84
2017-12-11T07:47:31.384Z,4.83
2017-12-11T07:48:31.370Z,4.75
2017-12-11T07:49:31.360Z,4.87
2017-12-11T07:50:31.350Z,4.72
2017-12-11T07:51:31.341Z,4.69
2017-12-11T07:52:31.327Z,4.71
2017-12-11T07:53:31.311Z,4.62
2017-12-11T07:54:31.298Z,4.69
2017-12-11T07:55:31.282Z,4.69
2017-12-11T07:56:31.277Z,4.71
2017-12-11T07:57:31.260Z,4.68
2017-12-11T07:58:31.245Z,4.77
2017-12-11T07:59:31.239Z,4.69
2017-12-11T08:00:31.223Z,4.68
2017-12-11T08:01:31.211Z,4.86
2017-12-11T08:02:31.200Z,4.80
2017-12-11T08:03:31.196Z,4.84
2017-12-11T08:04:31.172Z,4.87
2017-12-11T08:05:31.163Z,4.80
2017-12-11T08:06:31.148Z,4.75
2017-12-11T08:07:31.141Z,4.83
2017-12-11T08:08:31.129Z,4.80
2017-12-11T08:09:31.115Z,4.83
2017-12-11T08:10:31.098Z,4.65
2017-12-11T08:11:31.088Z,4.68
2017-12-11T08:12:31.074Z,4.72
2017-12-11T08:13:31.061Z,4.68
2017-12-11T08:14:31.051Z,4.67
2017-12-11T08:15:31.039Z,4.75
2017-12-11T08:16:31.033Z,4.75
2017-12-11T08:17:31.015Z,4.64
2017-12-11T08:18:31.003Z,4.65
2017-12-11T08:19:30.995Z,4.69
2017-12-11T08:20:30.980Z,4.72
2017-12-11T08:21:30.979Z,4.71
2017-12-11T08:22:30.960Z,4.72
2017-12-11T08:23:30.942Z,4.72
2017-12-11T08:24:30.929Z,4.74
2017-12-11T08:25:30.925Z,4.69
2017-12-11T08:26:30.905Z,4.69
2017-12-11T08:27:30.900Z,4.77
2017-12-11T08:28:30.885Z,4.83
2017-12-11T08:29:30.867Z,4.86
2017-12-11T08:30:30.855Z,4.99
2017-12-11T08:31:30.849Z,5.06
2017-12-11T08:32:30.831Z,5.05
2017-12-11T08:33:30.826Z,5.15
2017-12-11T08:34:30.808Z,5.20
2017-12-11T08:35:30.793Z,5.19
2017-12-11T08:36:30.781Z,5.23
2017-12-11T08:37:30.769Z,5.19
2017-12-11T08:38:30.762Z,5.09
2017-12-11T08:39:30.745Z,5.11
2017-12-11T08:40:30.740Z,5.26
2017-12-11T08:41:30.732Z,5.23
2017-12-11T08:42:30.710Z,5.32
2017-12-11T08:43:30.697Z,5.32
2017-12-11T08:44:30.687Z,5.24
2017-12-11T08:45:30.679Z,5.24
2017-12-11T08:46:30.665Z,5.40
2017-12-11T08:47:30.649Z,5.27
2017-12-11T08:48:30.639Z,5.23
2017-12-11T08:49:30.630Z,5.17
2017-12-11T08:50:30.615Z,5.19
2017-12-11T08:51:30.603Z,5.11
2017-12-11T08:52:30.592Z,5.08
2017-12-11T08:53:30.579Z,5.08
2017-12-11T08:54:30.576Z,5.09
2017-12-11T08:55:30.554Z,5.11
2017-12-11T08:56:30.542Z,5.09
2017-12-11T08:57:30.533Z,5.06
2017-12-11T08:58:30.520Z,5.06
2017-12-11T08:59:30.508Z,5.12
2017-12-11T09:00:30.501Z,5.09
2017-12-11T09:01:30.489Z,5.15
2017-12-11T09:02:30.473Z,5.05
2017-12-11T09:03:30.461Z,5.20
2017-12-11T09:04:30.448Z,5.14
2017-12-11T09:05:30.445Z,5.11
2017-12-11T09:06:30.427Z,5.09
2017-12-11T09:07:30.419Z,5.08
2017-12-11T09:08:30.402Z,5.11
2017-12-11T09:09:30.391Z,5.11
2017-12-11T09:10:30.386Z,5.14
2017-12-11T09:11:30.368Z,5.05
2017-12-11T09:12:30.356Z,5.19
2017-12-11T09:13:30.347Z,5.24
2017-12-11T09:14:30.338Z,5.14
2017-12-11T09:15:30.326Z,5.11
2017-12-11T09:16:30.310Z,5.17
2017-12-11T09:17:30.297Z,5.14
2017-12-11T09:18:30.287Z,5.06
2017-12-11T09:19:30.274Z,5.04
2017-12-11T09:20:30.262Z,5.20
2017-12-11T09:21:30.251Z,5.12
2017-12-11T09:22:30.238Z,5.06
2017-12-11T09:23:30.227Z,5.04
2017-12-11T09:24:30.214Z,5.19
2017-12-11T09:25:30.209Z,5.08
2017-12-11T09:26:30.195Z,5.22
2017-12-11T09:27:30.180Z,5.38
2017-12-11T09:28:30.176Z,5.49
2017-12-11T09:29:30.163Z,5.56
2017-12-11T09:30:30.144Z,5.62
2017-12-11T09:31:30.134Z,5.66
2017-12-11T09:32:30.124Z,5.77
2017-12-11T09:33:30.114Z,5.63
2017-12-11T09:34:30.097Z,5.56
2017-12-11T09:35:30.086Z,5.58
2017-12-11T09:36:30.075Z,5.56
2017-12-11T09:37:30.065Z,5.56
2017-12-11T09:38:30.093Z,5.55
2017-12-11T09:39:30.046Z,5.58
2017-12-11T09:40:30.028Z,5.49
2017-12-11T09:41:30.023Z,5.52
2017-12-11T09:42:30.007Z,5.47
2017-12-11T09:43:29.993Z,5.48
2017-12-11T09:44:29.981Z,5.44
2017-12-11T09:45:29.979Z,5.47
2017-12-11T09:46:29.956Z,5.44
2017-12-11T09:47:29.951Z,5.45
2017-12-11T09:48:29.934Z,5.45
2017-12-11T09:49:29.925Z,5.40
2017-12-11T09:50:29.913Z,5.30
2017-12-11T09:51:29.905Z,5.33
2017-12-11T09:52:29.888Z,5.29
2017-12-11T09:53:29.876Z,5.30
2017-12-11T09:54:29.863Z,5.29
2017-12-11T09:55:29.850Z,5.27
2017-12-11T09:56:29.851Z,5.24
2017-12-11T09:57:29.827Z,5.26
2017-12-11T09:58:29.822Z,5.20
2017-12-11T09:59:29.818Z,5.22
2017-12-11T10:00:29.793Z,5.33
2017-12-11T10:01:29.778Z,5.35
2017-12-11T10:02:29.766Z,5.33
2017-12-11T10:03:29.754Z,5.26
2017-12-11T10:04:29.743Z,5.30
2017-12-11T10:05:29.731Z,5.37
2017-12-11T10:06:29.719Z,5.41
2017-12-11T10:07:29.707Z,5.42
2017-12-11T10:08:29.696Z,5.42
2017-12-11T10:09:29.682Z,5.47
2017-12-11T10:10:29.684Z,5.47
2017-12-11T10:11:29.661Z,5.47
2017-12-11T10:12:29.646Z,5.48
2017-12-11T10:13:29.640Z,5.49
2017-12-11T10:14:29.623Z,5.49
2017-12-11T10:15:29.614Z,5.45
2017-12-11T10:16:29.600Z,5.45
2017-12-11T10:17:29.588Z,5.44
2017-12-11T10:18:29.574Z,5.41
2017-12-11T10:19:29.563Z,5.40
2017-12-11T10:20:29.551Z,5.44
2017-12-11T10:21:29.548Z,5.33
2017-12-11T10:22:29.528Z,5.33
2017-12-11T10:23:29.518Z,5.44
2017-12-11T10:24:29.508Z,5.35
2017-12-11T10:25:29.493Z,5.40
2017-12-11T10:26:29.479Z,5.29
2017-12-11T10:27:29.469Z,5.37
2017-12-11T10:28:29.462Z,5.51
2017-12-11T10:29:29.455Z,5.44
2017-12-11T10:30:29.435Z,5.44
2017-12-11T10:31:29.423Z,5.52
2017-12-11T10:32:29.419Z,5.48
2017-12-11T10:33:29.408Z,5.56
2017-12-11T10:34:29.388Z,5.58
2017-12-11T10:35:29.383Z,5.59
2017-12-11T10:36:29.367Z,5.62
2017-12-11T10:37:29.358Z,5.66
2017-12-11T10:38:29.351Z,5.69
2017-12-11T10:39:29.332Z,5.66
2017-12-11T10:40:29.329Z,5.59
2017-12-11T10:41:29.309Z,5.63
2017-12-11T10:42:29.302Z,5.63
2017-12-11T10:43:29.287Z,5.67
2017-12-11T10:44:29.277Z,5.69
2017-12-11T10:45:29.264Z,5.73
2017-12-11T10:46:29.253Z,5.73
2017-12-11T10:47:29.241Z,5.74
2017-12-11T10:48:29.229Z,5.75
2017-12-11T10:49:29.219Z,5.74
2017-12-11T10:50:29.206Z,5.84
2017-12-11T10:51:29.195Z,5.84
2017-12-11T10:52:29.183Z,6.02
2017-12-11T10:53:29.179Z,6.01
2017-12-11T10:54:29.165Z,5.88
2017-12-11T10:55:29.150Z,5.85
2017-12-11T10:56:29.138Z,5.88
2017-12-11T10:57:29.126Z,5.87
2017-12-11T10:58:29.115Z,5.85
2017-12-11T10:59:29.107Z,5.88
2017-12-11T11:00:29.096Z,5.95
2017-12-11T11:01:29.087Z,5.90
2017-12-11T11:02:29.067Z,5.87
2017-12-11T11:03:29.055Z,5.92
2017-12-11T11:04:29.051Z,5.80
2017-12-11T11:05:29.035Z,5.74
2017-12-11T11:06:29.023Z,5.74
2017-12-11T11:07:29.017Z,5.78
2017-12-11T11:08:29.005Z,5.73
2017-12-11T11:09:28.996Z,5.67
2017-12-11T11:10:28.976Z,5.63
2017-12-11T11:11:28.964Z,5.62
2017-12-11T11:12:28.954Z,5.66
2017-12-11T11:13:28.952Z,5.67
2017-12-11T11:14:28.935Z,5.60
2017-12-11T11:15:28.918Z,5.62
2017-12-11T11:16:28.906Z,5.62
2017-12-11T11:17:28.901Z,5.65
2017-12-11T11:18:28.885Z,5.60
2017-12-11T11:19:28.880Z,5.69
2017-12-11T11:20:28.863Z,5.66
2017-12-11T11:21:28.852Z,5.73
2017-12-11T11:22:28.838Z,5.65
2017-12-11T11:23:28.834Z,5.62
2017-12-11T11:24:28.815Z,5.63
2017-12-11T11:25:28.805Z,5.63
2017-12-11T11:26:28.793Z,5.65
2017-12-11T11:27:28.785Z,5.66
2017-12-11T11:28:28.771Z,5.60
2017-12-11T11:29:28.761Z,5.59
2017-12-11T11:30:28.747Z,5.55
2017-12-11T11:31:28.739Z,5.59
2017-12-11T11:32:28.730Z,5.62
2017-12-11T11:33:28.713Z,5.62
2017-12-11T11:34:28.701Z,5.77
2017-12-11T11:35:28.697Z,5.69
2017-12-11T11:36:28.680Z,5.70
2017-12-11T11:37:28.669Z,5.75
2017-12-11T11:38:28.658Z,5.80
2017-12-11T11:39:28.653Z,5.70
2017-12-11T11:40:28.636Z,5.80
2017-12-11T11:41:28.629Z,5.77
2017-12-11T11:42:28.617Z,5.77
2017-12-11T11:43:28.600Z,5.80
2017-12-11T11:44:28.590Z,5.84
2017-12-11T11:45:28.580Z,5.85
2017-12-11T11:46:28.567Z,5.78
2017-12-11T11:47:28.557Z,5.84
2017-12-11T11:48:28.548Z,5.85
2017-12-11T11:49:28.533Z,5.85
2017-12-11T11:50:28.527Z,5.78
2017-12-11T11:51:28.518Z,5.87
2017-12-11T11:52:28.505Z,5.78
2017-12-11T11:53:28.489Z,5.85
2017-12-11T11:54:28.480Z,5.90
2017-12-11T11:55:28.466Z,6.02
2017-12-11T11:56:28.456Z,5.81
2017-12-11T11:57:28.446Z,5.99
2017-12-11T11:58:28.441Z,5.80
2017-12-11T11:59:28.428Z,5.98
2017-12-11T12:00:28.417Z,5.84
2017-12-11T12:01:28.400Z,5.90
2017-12-11T12:02:28.395Z,5.95
2017-12-11T12:03:28.384Z,5.85
2017-12-11T12:04:28.368Z,5.98
2017-12-11T12:05:28.358Z,5.93
2017-12-11T12:06:28.346Z,5.99
2017-12-11T12:07:28.340Z,5.81
2017-12-11T12:08:28.326Z,5.90
2017-12-11T12:09:28.316Z,5.90
2017-12-11T12:10:28.303Z,5.93
2017-12-11T12:11:28.291Z,5.88
2017-12-11T12:12:28.282Z,5.92
2017-12-11T12:13:28.271Z,6.01
2017-12-11T12:14:28.265Z,5.95
2017-12-11T12:15:28.248Z,5.99
2017-12-11T12:16:28.244Z,5.99
2017-12-11T12:17:28.230Z,6.03
2017-12-11T12:18:28.217Z,6.08
2017-12-11T12:19:28.205Z,6.05
2017-12-11T12:20:28.196Z,6.14
2017-12-11T12:21:28.184Z,6.24
2017-12-11T12:22:28.174Z,6.19
2017-12-11T12:23:28.169Z,6.16
2017-12-11T12:24:28.155Z,6.21
2017-12-11T12:25:28.147Z,6.21
2017-12-11T12:26:28.130Z,6.19
2017-12-11T12:27:28.121Z,6.13
2017-12-11T12:28:28.110Z,6.16
2017-12-11T12:29:28.099Z,6.11
2017-12-11T12:30:28.088Z,6.19
2017-12-11T12:31:28.078Z,6.19
2017-12-11T12:32:28.067Z,6.28
2017-12-11T12:33:28.057Z,6.27
2017-12-11T12:34:28.044Z,6.28
2017-12-11T12:35:28.034Z,6.25
2017-12-11T12:36:28.025Z,6.33
2017-12-11T12:37:28.014Z,6.35
2017-12-11T12:38:28.004Z,6.40
2017-12-11T12:39:27.998Z,6.42
2017-12-11T12:40:27.982Z,6.45
2017-12-11T12:41:27.978Z,6.45
2017-12-11T12:42:27.960Z,6.48
2017-12-11T12:43:27.949Z,6.51
2017-12-11T12:44:27.944Z,6.46
2017-12-11T12:45:27.930Z,6.39
2017-12-11T12:46:27.918Z,6.38
2017-12-11T12:47:27.907Z,6.35
2017-12-11T12:48:27.899Z,6.33
2017-12-11T12:49:27.898Z,6.35
2017-12-11T12:50:27.875Z,6.32
2017-12-11T12:51:27.867Z,6.45
2017-12-11T12:52:27.855Z,6.46
2017-12-11T12:53:27.845Z,6.39
2017-12-11T12:54:27.838Z,6.46
2017-12-11T12:55:27.825Z,6.46
2017-12-11T12:56:27.818Z,6.40
2017-12-11T12:57:27.809Z,6.32
2017-12-11T12:58:27.793Z,6.36
2017-12-11T12:59:27.782Z,6.40
2017-12-11T13:00:27.772Z,6.33
2017-12-11T13:01:27.767Z,6.39
2017-12-11T13:02:27.748Z,6.38
2017-12-11T13:03:27.740Z,6.35
2017-12-11T13:04:27.736Z,6.40
2017-12-11T13:05:27.719Z,6.32
2017-12-11T13:06:27.709Z,6.39
2017-12-11T13:07:27.698Z,6.33
2017-12-11T13:08:27.694Z,6.45
2017-12-11T13:09:27.677Z,6.43
2017-12-11T13:10:27.666Z,6.53
2017-12-11T13:11:27.662Z,6.53
2017-12-11T13:12:27.646Z,6.50
2017-12-11T13:13:27.640Z,6.54
2017-12-11T13:14:27.625Z,6.53
2017-12-11T13:15:27.615Z,6.50
2017-12-11T13:16:27.604Z,6.57
2017-12-11T13:17:27.604Z,6.53
2017-12-11T13:18:27.589Z,6.35